sensor_id;sensor_type;location;lat;lon;timestamp;P1;durP1;ratioP1;P2;durP2;ratioP2
52942;SDS011;38809;53.300;6.614;2023-02-28T00:24:34;4.75;;;1.40;;
52942;SDS011;38809;53.300;6.614;2023-02-28T00:48:53;4.32;;;1.10;;
52942;SDS011;38809;53.300;6.614;2023-02-28T00:56:10;10.02;;;1.55;;
52942;SDS011;38809;53.300;6.614;2023-02-28T00:58:35;3.93;;;1.37;;
52942;SDS011;38809;53.300;6.614;2023-02-28T01:10:44;8.10;;;1.58;;
52942;SDS011;38809;53.300;6.614;2023-02-28T01:30:10;5.05;;;1.55;;
52942;SDS011;38809;53.300;6.614;2023-02-28T01:54:39;5.22;;;1.42;;
52942;SDS011;38809;53.300;6.614;2023-02-28T01:59:47;5.00;;;1.27;;
52942;SDS011;38809;53.300;6.614;2023-02-28T02:17:38;4.70;;;1.23;;
52942;SDS011;38809;53.300;6.614;2023-02-28T02:53:49;4.45;;;1.13;;
52942;SDS011;38809;53.300;6.614;2023-02-28T03:06:23;4.35;;;1.10;;
52942;SDS011;38809;53.300;6.614;2023-02-28T03:08:49;4.78;;;0.98;;
52942;SDS011;38809;53.300;6.614;2023-02-28T03:24:09;6.53;;;1.00;;
52942;SDS011;38809;53.300;6.614;2023-02-28T03:42:20;3.55;;;1.55;;
52942;SDS011;38809;53.300;6.614;2023-02-28T04:05:34;8.60;;;5.32;;
52942;SDS011;38809;53.300;6.614;2023-02-28T04:13:08;9.52;;;6.60;;
52942;SDS011;38809;53.300;6.614;2023-02-28T04:49:37;8.30;;;4.50;;
52942;SDS011;38809;53.300;6.614;2023-02-28T04:56:54;5.80;;;4.78;;
52942;SDS011;38809;53.300;6.614;2023-02-28T08:23:57;10.52;;;6.22;;
52942;SDS011;38809;53.300;6.614;2023-02-28T08:28:50;12.00;;;8.40;;
52942;SDS011;38809;53.300;6.614;2023-02-28T09:42:35;10.70;;;6.80;;
52942;SDS011;38809;53.300;6.614;2023-02-28T11:00:47;9.50;;;6.03;;
52942;SDS011;38809;53.300;6.614;2023-02-28T11:05:45;11.60;;;7.32;;
52942;SDS011;38809;53.300;6.614;2023-02-28T11:08:12;10.48;;;7.43;;
52942;SDS011;38809;53.300;6.614;2023-02-28T11:10:44;9.63;;;7.40;;
52942;SDS011;38809;53.300;6.614;2023-02-28T11:13:19;9.20;;;6.70;;
52942;SDS011;38809;53.300;6.614;2023-02-28T11:15:54;8.98;;;6.75;;
52942;SDS011;38809;53.300;6.614;2023-02-28T11:21:08;6.32;;;5.38;;
52942;SDS011;38809;53.300;6.614;2023-02-28T11:23:36;8.57;;;6.90;;
52942;SDS011;38809;53.300;6.614;2023-02-28T11:26:05;9.35;;;6.50;;
52942;SDS011;38809;53.300;6.614;2023-02-28T11:28:38;7.25;;;4.90;;
52942;SDS011;38809;53.300;6.614;2023-02-28T11:38:46;7.63;;;5.80;;
52942;SDS011;38809;53.300;6.614;2023-02-28T11:41:22;8.27;;;6.05;;
52942;SDS011;38809;53.300;6.614;2023-02-28T11:43:56;9.52;;;6.10;;
52942;SDS011;38809;53.300;6.614;2023-02-28T11:51:47;6.82;;;5.32;;
52942;SDS011;38809;53.300;6.614;2023-02-28T11:57:03;7.95;;;5.57;;
52942;SDS011;38809;53.300;6.614;2023-02-28T11:59:45;6.82;;;5.32;;
52942;SDS011;38809;53.300;6.614;2023-02-28T12:02:22;9.25;;;5.70;;
52942;SDS011;38809;53.300;6.614;2023-02-28T12:05:11;9.40;;;6.10;;
52942;SDS011;38809;53.300;6.614;2023-02-28T12:10:57;9.18;;;5.60;;
52942;SDS011;38809;53.300;6.614;2023-02-28T12:26:46;7.55;;;5.88;;
52942;SDS011;38809;53.300;6.614;2023-02-28T12:29:21;8.05;;;6.20;;
52942;SDS011;38809;53.300;6.614;2023-02-28T12:31:49;8.98;;;5.10;;
52942;SDS011;38809;53.300;6.614;2023-02-28T12:34:22;7.03;;;5.50;;
52942;SDS011;38809;53.300;6.614;2023-02-28T12:37:10;7.28;;;5.75;;
52942;SDS011;38809;53.300;6.614;2023-02-28T12:40:00;7.63;;;5.53;;
52942;SDS011;38809;53.300;6.614;2023-02-28T12:42:32;8.10;;;5.75;;
52942;SDS011;38809;53.300;6.614;2023-02-28T12:45:19;6.88;;;5.30;;
52942;SDS011;38809;53.300;6.614;2023-02-28T12:47:46;8.13;;;5.90;;
52942;SDS011;38809;53.300;6.614;2023-02-28T12:50:25;7.40;;;5.45;;
52942;SDS011;38809;53.300;6.614;2023-02-28T12:58:33;10.40;;;6.25;;
52942;SDS011;38809;53.300;6.614;2023-02-28T13:01:06;6.75;;;4.18;;
52942;SDS011;38809;53.300;6.614;2023-02-28T13:09:34;7.03;;;5.43;;
52942;SDS011;38809;53.300;6.614;2023-02-28T13:12:00;9.95;;;5.93;;
52942;SDS011;38809;53.300;6.614;2023-02-28T13:14:29;7.45;;;4.32;;
52942;SDS011;38809;53.300;6.614;2023-02-28T13:19:34;6.85;;;5.68;;
52942;SDS011;38809;53.300;6.614;2023-02-28T13:22:03;7.38;;;5.80;;
52942;SDS011;38809;53.300;6.614;2023-02-28T13:39:55;6.93;;;5.93;;
52942;SDS011;38809;53.300;6.614;2023-02-28T13:47:36;8.05;;;5.70;;
52942;SDS011;38809;53.300;6.614;2023-02-28T13:50:15;7.60;;;6.05;;
52942;SDS011;38809;53.300;6.614;2023-02-28T13:55:37;8.70;;;5.13;;
52942;SDS011;38809;53.300;6.614;2023-02-28T14:06:55;9.65;;;6.90;;
52942;SDS011;38809;53.300;6.614;2023-02-28T14:09:27;7.22;;;6.53;;
52942;SDS011;38809;53.300;6.614;2023-02-28T14:15:03;8.95;;;6.32;;
52942;SDS011;38809;53.300;6.614;2023-02-28T14:17:55;8.25;;;6.20;;
52942;SDS011;38809;53.300;6.614;2023-02-28T14:20:25;9.40;;;6.07;;
52942;SDS011;38809;53.300;6.614;2023-02-28T14:31:39;6.95;;;6.03;;
52942;SDS011;38809;53.300;6.614;2023-02-28T14:37:11;8.63;;;6.75;;
52942;SDS011;38809;53.300;6.614;2023-02-28T14:39:43;9.60;;;6.82;;
52942;SDS011;38809;53.300;6.614;2023-02-28T14:44:57;8.07;;;6.78;;
52942;SDS011;38809;53.300;6.614;2023-02-28T14:47:23;9.50;;;6.45;;
52942;SDS011;38809;53.300;6.614;2023-02-28T14:52:21;7.97;;;6.38;;
52942;SDS011;38809;53.300;6.614;2023-02-28T14:54:54;6.80;;;6.10;;
52942;SDS011;38809;53.300;6.614;2023-02-28T14:57:29;8.48;;;6.78;;
52942;SDS011;38809;53.300;6.614;2023-02-28T15:00:20;8.98;;;6.85;;
52942;SDS011;38809;53.300;6.614;2023-02-28T15:06:14;7.40;;;6.22;;
52942;SDS011;38809;53.300;6.614;2023-02-28T15:08:42;7.22;;;5.88;;
52942;SDS011;38809;53.300;6.614;2023-02-28T15:11:08;8.15;;;5.80;;
52942;SDS011;38809;53.300;6.614;2023-02-28T15:13:47;7.20;;;5.28;;
52942;SDS011;38809;53.300;6.614;2023-02-28T15:16:17;7.35;;;5.40;;
52942;SDS011;38809;53.300;6.614;2023-02-28T15:21:39;7.10;;;5.22;;
52942;SDS011;38809;53.300;6.614;2023-02-28T15:26:56;7.45;;;5.78;;
52942;SDS011;38809;53.300;6.614;2023-02-28T15:29:25;6.70;;;5.10;;
52942;SDS011;38809;53.300;6.614;2023-02-28T15:31:57;6.45;;;4.95;;
52942;SDS011;38809;53.300;6.614;2023-02-28T15:34:37;7.25;;;5.97;;
52942;SDS011;38809;53.300;6.614;2023-02-28T15:39:49;6.30;;;4.03;;
52942;SDS011;38809;53.300;6.614;2023-02-28T15:42:19;8.32;;;5.50;;
52942;SDS011;38809;53.300;6.614;2023-02-28T15:44:46;7.53;;;6.03;;
52942;SDS011;38809;53.300;6.614;2023-02-28T15:47:22;6.93;;;5.55;;
52942;SDS011;38809;53.300;6.614;2023-02-28T15:49:53;9.55;;;5.82;;
52942;SDS011;38809;53.300;6.614;2023-02-28T15:57:47;7.07;;;6.03;;
52942;SDS011;38809;53.300;6.614;2023-02-28T16:00:18;8.18;;;6.03;;
52942;SDS011;38809;53.300;6.614;2023-02-28T16:02:45;7.35;;;5.90;;
52942;SDS011;38809;53.300;6.614;2023-02-28T16:07:39;6.47;;;4.93;;
52942;SDS011;38809;53.300;6.614;2023-02-28T16:10:08;8.02;;;5.35;;
52942;SDS011;38809;53.300;6.614;2023-02-28T16:12:37;8.65;;;6.13;;
52942;SDS011;38809;53.300;6.614;2023-02-28T16:15:46;6.93;;;5.30;;
52942;SDS011;38809;53.300;6.614;2023-02-28T16:17:54;7.07;;;5.32;;
52942;SDS011;38809;53.300;6.614;2023-02-28T16:20:25;7.53;;;5.55;;
52942;SDS011;38809;53.300;6.614;2023-02-28T16:22:53;6.25;;;5.45;;
52942;SDS011;38809;53.300;6.614;2023-02-28T16:25:20;7.03;;;5.32;;
52942;SDS011;38809;53.300;6.614;2023-02-28T16:27:52;7.82;;;5.47;;
52942;SDS011;38809;53.300;6.614;2023-02-28T16:30:20;8.60;;;5.72;;
52942;SDS011;38809;53.300;6.614;2023-02-28T16:32:51;7.28;;;6.07;;
52942;SDS011;38809;53.300;6.614;2023-02-28T16:37:44;7.20;;;5.63;;
52942;SDS011;38809;53.300;6.614;2023-02-28T16:40:17;6.63;;;5.50;;
52942;SDS011;38809;53.300;6.614;2023-02-28T16:42:46;6.55;;;5.45;;
52942;SDS011;38809;53.300;6.614;2023-02-28T16:45:21;7.93;;;6.22;;
52942;SDS011;38809;53.300;6.614;2023-02-28T16:47:48;7.47;;;6.30;;
52942;SDS011;38809;53.300;6.614;2023-02-28T16:50:18;7.38;;;5.97;;
52942;SDS011;38809;53.300;6.614;2023-02-28T16:52:46;7.65;;;6.30;;
52942;SDS011;38809;53.300;6.614;2023-02-28T16:55:12;7.05;;;6.35;;
52942;SDS011;38809;53.300;6.614;2023-02-28T16:57:38;8.18;;;6.60;;
52942;SDS011;38809;53.300;6.614;2023-02-28T17:00:06;9.32;;;7.07;;
52942;SDS011;38809;53.300;6.614;2023-02-28T17:02:37;9.60;;;6.97;;
52942;SDS011;38809;53.300;6.614;2023-02-28T17:05:03;9.88;;;8.07;;
52942;SDS011;38809;53.300;6.614;2023-02-28T17:07:29;9.27;;;7.65;;
52942;SDS011;38809;53.300;6.614;2023-02-28T17:09:55;10.38;;;7.72;;
52942;SDS011;38809;53.300;6.614;2023-02-28T17:12:20;12.00;;;10.80;;
52942;SDS011;38809;53.300;6.614;2023-02-28T17:14:46;13.80;;;10.17;;
52942;SDS011;38809;53.300;6.614;2023-02-28T17:17:15;10.95;;;9.73;;
52942;SDS011;38809;53.300;6.614;2023-02-28T17:19:44;10.90;;;9.80;;
52942;SDS011;38809;53.300;6.614;2023-02-28T17:22:10;14.23;;;12.73;;
52942;SDS011;38809;53.300;6.614;2023-02-28T17:24:36;14.90;;;13.00;;
52942;SDS011;38809;53.300;6.614;2023-02-28T17:27:03;13.10;;;11.63;;
52942;SDS011;38809;53.300;6.614;2023-02-28T17:29:28;14.93;;;12.30;;
52942;SDS011;38809;53.300;6.614;2023-02-28T17:31:54;16.98;;;15.10;;
52942;SDS011;38809;53.300;6.614;2023-02-28T17:34:20;17.88;;;14.32;;
52942;SDS011;38809;53.300;6.614;2023-02-28T17:36:47;16.83;;;14.23;;
52942;SDS011;38809;53.300;6.614;2023-02-28T17:39:15;14.35;;;11.93;;
52942;SDS011;38809;53.300;6.614;2023-02-28T17:41:49;13.13;;;10.07;;
52942;SDS011;38809;53.300;6.614;2023-02-28T17:44:24;12.05;;;9.45;;
52942;SDS011;38809;53.300;6.614;2023-02-28T17:46:50;10.18;;;8.77;;
52942;SDS011;38809;53.300;6.614;2023-02-28T17:49:18;11.93;;;8.48;;
52942;SDS011;38809;53.300;6.614;2023-02-28T17:51:44;10.93;;;8.65;;
52942;SDS011;38809;53.300;6.614;2023-02-28T17:54:09;12.70;;;9.07;;
52942;SDS011;38809;53.300;6.614;2023-02-28T17:56:35;11.88;;;8.82;;
52942;SDS011;38809;53.300;6.614;2023-02-28T17:59:01;11.50;;;7.82;;
52942;SDS011;38809;53.300;6.614;2023-02-28T18:01:27;12.48;;;8.85;;
52942;SDS011;38809;53.300;6.614;2023-02-28T18:03:54;9.73;;;8.32;;
52942;SDS011;38809;53.300;6.614;2023-02-28T18:06:23;10.98;;;7.95;;
52942;SDS011;38809;53.300;6.614;2023-02-28T18:08:56;12.60;;;9.32;;
52942;SDS011;38809;53.300;6.614;2023-02-28T18:11:22;12.13;;;8.23;;
52942;SDS011;38809;53.300;6.614;2023-02-28T18:13:50;11.18;;;8.57;;
52942;SDS011;38809;53.300;6.614;2023-02-28T18:16:17;10.77;;;7.70;;
52942;SDS011;38809;53.300;6.614;2023-02-28T18:18:44;9.70;;;6.78;;
52942;SDS011;38809;53.300;6.614;2023-02-28T18:21:11;15.65;;;6.57;;
52942;SDS011;38809;53.300;6.614;2023-02-28T18:23:39;8.73;;;6.60;;
52942;SDS011;38809;53.300;6.614;2023-02-28T18:26:12;8.75;;;6.35;;
52942;SDS011;38809;53.300;6.614;2023-02-28T18:28:39;14.95;;;9.63;;
52942;SDS011;38809;53.300;6.614;2023-02-28T18:31:16;10.88;;;9.15;;
52942;SDS011;38809;53.300;6.614;2023-02-28T18:33:46;11.73;;;9.18;;
52942;SDS011;38809;53.300;6.614;2023-02-28T18:36:14;13.13;;;9.98;;
52942;SDS011;38809;53.300;6.614;2023-02-28T18:38:40;15.90;;;10.82;;
52942;SDS011;38809;53.300;6.614;2023-02-28T18:41:07;15.25;;;12.07;;
52942;SDS011;38809;53.300;6.614;2023-02-28T18:43:34;15.43;;;12.90;;
52942;SDS011;38809;53.300;6.614;2023-02-28T18:46:09;20.85;;;16.77;;
52942;SDS011;38809;53.300;6.614;2023-02-28T18:48:36;52.40;;;38.33;;
52942;SDS011;38809;53.300;6.614;2023-02-28T18:53:52;19.55;;;16.45;;
52942;SDS011;38809;53.300;6.614;2023-02-28T18:56:20;20.88;;;17.73;;
52942;SDS011;38809;53.300;6.614;2023-02-28T18:58:48;15.27;;;13.18;;
52942;SDS011;38809;53.300;6.614;2023-02-28T19:01:18;19.52;;;16.98;;
52942;SDS011;38809;53.300;6.614;2023-02-28T19:03:50;18.10;;;14.63;;
52942;SDS011;38809;53.300;6.614;2023-02-28T19:06:16;16.30;;;13.40;;
52942;SDS011;38809;53.300;6.614;2023-02-28T19:08:43;14.68;;;11.65;;
52942;SDS011;38809;53.300;6.614;2023-02-28T19:11:13;15.23;;;11.37;;
52942;SDS011;38809;53.300;6.614;2023-02-28T19:13:40;14.25;;;12.73;;
52942;SDS011;38809;53.300;6.614;2023-02-28T19:16:07;16.73;;;14.35;;
52942;SDS011;38809;53.300;6.614;2023-02-28T19:18:34;14.52;;;13.02;;
52942;SDS011;38809;53.300;6.614;2023-02-28T19:21:00;16.00;;;14.05;;
52942;SDS011;38809;53.300;6.614;2023-02-28T19:23:26;13.38;;;11.98;;
52942;SDS011;38809;53.300;6.614;2023-02-28T19:25:53;12.00;;;8.73;;
52942;SDS011;38809;53.300;6.614;2023-02-28T19:28:20;10.32;;;8.38;;
52942;SDS011;38809;53.300;6.614;2023-02-28T19:30:49;11.65;;;7.70;;
52942;SDS011;38809;53.300;6.614;2023-02-28T19:33:17;11.15;;;8.32;;
52942;SDS011;38809;53.300;6.614;2023-02-28T19:35:44;11.00;;;8.50;;
52942;SDS011;38809;53.300;6.614;2023-02-28T19:38:10;11.48;;;9.82;;
52942;SDS011;38809;53.300;6.614;2023-02-28T19:40:36;11.88;;;8.82;;
52942;SDS011;38809;53.300;6.614;2023-02-28T19:43:02;11.77;;;8.93;;
52942;SDS011;38809;53.300;6.614;2023-02-28T19:45:28;11.27;;;9.25;;
52942;SDS011;38809;53.300;6.614;2023-02-28T19:47:54;11.17;;;9.33;;
52942;SDS011;38809;53.300;6.614;2023-02-28T19:50:20;13.05;;;8.52;;
52942;SDS011;38809;53.300;6.614;2023-02-28T19:52:46;9.68;;;8.05;;
52942;SDS011;38809;53.300;6.614;2023-02-28T19:55:14;13.55;;;10.02;;
52942;SDS011;38809;53.300;6.614;2023-02-28T19:57:43;10.23;;;8.75;;
52942;SDS011;38809;53.300;6.614;2023-02-28T20:02:36;10.18;;;7.45;;
52942;SDS011;38809;53.300;6.614;2023-02-28T20:05:02;11.85;;;7.82;;
52942;SDS011;38809;53.300;6.614;2023-02-28T20:07:28;11.73;;;8.40;;
52942;SDS011;38809;53.300;6.614;2023-02-28T20:09:56;9.23;;;7.55;;
52942;SDS011;38809;53.300;6.614;2023-02-28T20:12:22;8.90;;;7.25;;
52942;SDS011;38809;53.300;6.614;2023-02-28T20:14:51;12.90;;;8.07;;
52942;SDS011;38809;53.300;6.614;2023-02-28T20:17:20;9.73;;;8.40;;
52942;SDS011;38809;53.300;6.614;2023-02-28T20:19:46;9.73;;;7.88;;
52942;SDS011;38809;53.300;6.614;2023-02-28T20:22:12;14.05;;;8.70;;
52942;SDS011;38809;53.300;6.614;2023-02-28T20:24:38;11.25;;;8.45;;
52942;SDS011;38809;53.300;6.614;2023-02-28T20:27:03;9.80;;;7.33;;
52942;SDS011;38809;53.300;6.614;2023-02-28T20:29:29;18.10;;;13.13;;
52942;SDS011;38809;53.300;6.614;2023-02-28T20:31:55;16.08;;;13.10;;
52942;SDS011;38809;53.300;6.614;2023-02-28T20:34:22;12.15;;;9.23;;
52942;SDS011;38809;53.300;6.614;2023-02-28T20:36:49;14.93;;;11.38;;
52942;SDS011;38809;53.300;6.614;2023-02-28T20:39:15;14.23;;;9.90;;
52942;SDS011;38809;53.300;6.614;2023-02-28T20:41:41;26.30;;;22.42;;
52942;SDS011;38809;53.300;6.614;2023-02-28T20:44:08;26.77;;;23.93;;
52942;SDS011;38809;53.300;6.614;2023-02-28T20:46:36;27.60;;;23.30;;
52942;SDS011;38809;53.300;6.614;2023-02-28T20:49:02;26.33;;;22.27;;
52942;SDS011;38809;53.300;6.614;2023-02-28T20:51:27;13.95;;;10.80;;
52942;SDS011;38809;53.300;6.614;2023-02-28T20:53:53;13.55;;;9.88;;
52942;SDS011;38809;53.300;6.614;2023-02-28T20:56:20;10.80;;;8.15;;
52942;SDS011;38809;53.300;6.614;2023-02-28T20:58:48;10.20;;;8.35;;
52942;SDS011;38809;53.300;6.614;2023-02-28T21:01:18;11.43;;;7.90;;
52942;SDS011;38809;53.300;6.614;2023-02-28T21:03:54;12.20;;;9.23;;
52942;SDS011;38809;53.300;6.614;2023-02-28T21:06:25;14.85;;;12.48;;
52942;SDS011;38809;53.300;6.614;2023-02-28T21:08:52;15.85;;;14.25;;
52942;SDS011;38809;53.300;6.614;2023-02-28T21:11:19;14.40;;;11.57;;
52942;SDS011;38809;53.300;6.614;2023-02-28T21:13:48;13.10;;;11.05;;
52942;SDS011;38809;53.300;6.614;2023-02-28T21:16:16;17.70;;;15.52;;
52942;SDS011;38809;53.300;6.614;2023-02-28T21:18:44;14.35;;;12.00;;
52942;SDS011;38809;53.300;6.614;2023-02-28T21:21:14;19.02;;;15.05;;
52942;SDS011;38809;53.300;6.614;2023-02-28T21:23:42;24.70;;;22.10;;
52942;SDS011;38809;53.300;6.614;2023-02-28T21:26:11;26.63;;;20.88;;
52942;SDS011;38809;53.300;6.614;2023-02-28T21:28:39;29.23;;;24.95;;
52942;SDS011;38809;53.300;6.614;2023-02-28T21:31:11;17.55;;;14.15;;
52942;SDS011;38809;53.300;6.614;2023-02-28T21:33:38;14.20;;;11.52;;
52942;SDS011;38809;53.300;6.614;2023-02-28T21:36:06;11.45;;;9.18;;
52942;SDS011;38809;53.300;6.614;2023-02-28T21:38:37;13.05;;;8.68;;
52942;SDS011;38809;53.300;6.614;2023-02-28T21:41:16;14.82;;;11.27;;
52942;SDS011;38809;53.300;6.614;2023-02-28T21:43:43;29.75;;;22.27;;
52942;SDS011;38809;53.300;6.614;2023-02-28T21:48:36;21.35;;;15.30;;
52942;SDS011;38809;53.300;6.614;2023-02-28T21:51:04;14.02;;;10.43;;
52942;SDS011;38809;53.300;6.614;2023-02-28T21:53:32;12.25;;;9.50;;
52942;SDS011;38809;53.300;6.614;2023-02-28T21:55:59;13.68;;;9.18;;
52942;SDS011;38809;53.300;6.614;2023-02-28T21:58:26;13.20;;;10.07;;
52942;SDS011;38809;53.300;6.614;2023-02-28T22:00:51;12.50;;;9.53;;
52942;SDS011;38809;53.300;6.614;2023-02-28T22:03:17;12.67;;;8.73;;
52942;SDS011;38809;53.300;6.614;2023-02-28T22:05:43;12.27;;;9.27;;
52942;SDS011;38809;53.300;6.614;2023-02-28T22:08:08;11.80;;;8.23;;
52942;SDS011;38809;53.300;6.614;2023-02-28T22:10:34;12.83;;;9.00;;
52942;SDS011;38809;53.300;6.614;2023-02-28T22:13:00;13.20;;;9.00;;
52942;SDS011;38809;53.300;6.614;2023-02-28T22:15:28;14.70;;;9.68;;
52942;SDS011;38809;53.300;6.614;2023-02-28T22:17:56;12.52;;;8.85;;
52942;SDS011;38809;53.300;6.614;2023-02-28T22:20:23;11.63;;;8.40;;
52942;SDS011;38809;53.300;6.614;2023-02-28T22:22:48;11.47;;;8.73;;
52942;SDS011;38809;53.300;6.614;2023-02-28T22:25:14;11.73;;;9.20;;
52942;SDS011;38809;53.300;6.614;2023-02-28T22:27:40;9.98;;;8.45;;
52942;SDS011;38809;53.300;6.614;2023-02-28T22:30:05;12.10;;;7.67;;
52942;SDS011;38809;53.300;6.614;2023-02-28T22:32:32;11.43;;;9.10;;
52942;SDS011;38809;53.300;6.614;2023-02-28T22:34:57;9.93;;;8.03;;
52942;SDS011;38809;53.300;6.614;2023-02-28T22:37:23;9.77;;;8.47;;
52942;SDS011;38809;53.300;6.614;2023-02-28T22:39:49;11.17;;;8.33;;
52942;SDS011;38809;53.300;6.614;2023-02-28T22:42:14;11.60;;;8.30;;
52942;SDS011;38809;53.300;6.614;2023-02-28T22:44:40;11.87;;;8.93;;
52942;SDS011;38809;53.300;6.614;2023-02-28T22:47:05;12.63;;;9.07;;
52942;SDS011;38809;53.300;6.614;2023-02-28T22:49:31;10.97;;;8.47;;
52942;SDS011;38809;53.300;6.614;2023-02-28T22:51:57;11.67;;;7.97;;
52942;SDS011;38809;53.300;6.614;2023-02-28T22:54:22;10.80;;;8.70;;
52942;SDS011;38809;53.300;6.614;2023-02-28T22:56:48;11.57;;;9.43;;
52942;SDS011;38809;53.300;6.614;2023-02-28T22:59:14;12.23;;;8.63;;
52942;SDS011;38809;53.300;6.614;2023-02-28T23:01:40;11.67;;;8.97;;
52942;SDS011;38809;53.300;6.614;2023-02-28T23:04:08;11.07;;;8.95;;
52942;SDS011;38809;53.300;6.614;2023-02-28T23:06:39;8.13;;;7.03;;
52942;SDS011;38809;53.300;6.614;2023-02-28T23:09:07;10.45;;;8.38;;
52942;SDS011;38809;53.300;6.614;2023-02-28T23:11:37;9.02;;;7.30;;
52942;SDS011;38809;53.300;6.614;2023-02-28T23:14:05;10.13;;;7.63;;
52942;SDS011;38809;53.300;6.614;2023-02-28T23:16:42;9.48;;;8.05;;
52942;SDS011;38809;53.300;6.614;2023-02-28T23:19:09;10.27;;;7.82;;
52942;SDS011;38809;53.300;6.614;2023-02-28T23:21:40;25.27;;;20.25;;
52942;SDS011;38809;53.300;6.614;2023-02-28T23:24:07;25.17;;;20.35;;
52942;SDS011;38809;53.300;6.614;2023-02-28T23:26:37;23.83;;;18.65;;
52942;SDS011;38809;53.300;6.614;2023-02-28T23:29:05;22.55;;;16.48;;
52942;SDS011;38809;53.300;6.614;2023-02-28T23:31:31;19.43;;;15.93;;
52942;SDS011;38809;53.300;6.614;2023-02-28T23:33:57;19.02;;;13.40;;
52942;SDS011;38809;53.300;6.614;2023-02-28T23:36:25;18.90;;;13.48;;
52942;SDS011;38809;53.300;6.614;2023-02-28T23:38:51;18.65;;;12.52;;
52942;SDS011;38809;53.300;6.614;2023-02-28T23:41:17;17.00;;;11.52;;
52942;SDS011;38809;53.300;6.614;2023-02-28T23:43:45;14.48;;;9.43;;
52942;SDS011;38809;53.300;6.614;2023-02-28T23:46:12;15.57;;;10.77;;
52942;SDS011;38809;53.300;6.614;2023-02-28T23:51:08;14.25;;;8.85;;
52942;SDS011;38809;53.300;6.614;2023-02-28T23:53:39;15.25;;;8.70;;
52942;SDS011;38809;53.300;6.614;2023-02-28T23:56:08;19.48;;;12.05;;
52942;SDS011;38809;53.300;6.614;2023-02-28T23:58:37;23.67;;;13.52;;
